Terminal Aerodrome Forecast
Issued by NWS

Home | Current Version | Previous Version | Text Only | Print | Product List | Glossary On
Versions: 1 2 3 4 5 6 7 8 9 10 11 12
000
FTUS44 KLZK 300528
TAFHOT
TAF
KHOT 300528Z 3006/3106 VRB03KT P6SM SCT250
      TEMPO 3009/3013 4SM BR SCT005
     FM301500 05005KT P6SM FEW050 SCT250
     FM301900 08007KT P6SM SCT050 BKN250=

USA.gov is the U.S. government's official web portal to all federal, state and local government web resources and services.